Time;durP1;ratioP1;P1;durP2;ratioP2;P2;SDS_P1;SDS_P2;PMS_P1;PMS_P2;Temp;Humidity;BMP_temperature;BMP_pressure;BME280_temperature;BME280_humidity;BME280_pressure;Samples;Min_cycle;Max_cycle;Signal;HPM_P1;HPM_P2
2022/07/04 00:00:05;;;;;;;4.40;2.67;;;;;;;13.64;100.00;101280.13;4984292;28;20042;-76
2022/07/04 00:02:31;;;;;;;5.43;2.70;;;;;;;13.61;100.00;101277.78;4990969;28;20048;-76
2022/07/04 00:04:57;;;;;;;5.50;2.80;;;;;;;13.66;100.00;101272.75;4980637;28;20018;-75
2022/07/04 00:07:22;;;;;;;2.80;2.50;;;;;;;13.61;100.00;101277.78;4999498;28;20042;-80
2022/07/04 00:09:48;;;;;;;6.07;2.97;;;;;;;13.58;100.00;101268.25;5001746;28;20115;-77
2022/07/04 00:12:13;;;;;;;4.72;3.45;;;;;;;13.56;100.00;101272.94;4982569;28;20390;-75
2022/07/04 00:14:39;;;;;;;5.10;3.77;;;;;;;13.57;100.00;101277.28;4997171;28;20515;-75
2022/07/04 00:17:05;;;;;;;7.28;3.42;;;;;;;13.50;100.00;101268.22;4996785;28;20270;-76
2022/07/04 00:19:30;;;;;;;5.17;3.30;;;;;;;13.59;100.00;101269.91;5000126;28;20380;-77
2022/07/04 00:21:55;;;;;;;7.53;3.83;;;;;;;13.56;100.00;101275.63;5000210;28;20487;-75
2022/07/04 00:24:21;;;;;;;9.27;3.63;;;;;;;13.56;100.00;101269.41;4982169;28;20069;-75
2022/07/04 00:26:46;;;;;;;8.20;3.80;;;;;;;13.61;100.00;101267.88;5000656;28;20041;-75
2022/07/04 00:29:12;;;;;;;9.47;3.83;;;;;;;13.62;100.00;101263.34;4997902;28;20045;-75
2022/07/04 00:31:37;;;;;;;7.63;4.00;;;;;;;13.63;100.00;101259.69;5003006;28;20069;-76
2022/07/04 00:34:03;;;;;;;18.93;5.30;;;;;;;13.71;100.00;101267.72;4980445;28;20402;-76
2022/07/04 00:36:28;;;;;;;10.77;4.93;;;;;;;13.77;100.00;101259.00;4991486;28;20026;-75
2022/07/04 00:38:54;;;;;;;9.47;3.30;;;;;;;13.81;100.00;101262.16;5000879;28;20277;-75
2022/07/04 00:41:19;;;;;;;10.63;3.73;;;;;;;13.86;100.00;101255.28;4998494;28;20062;-75
2022/07/04 00:44:07;;;;;;;11.40;4.33;;;;;;;13.97;100.00;101261.28;5000005;28;20202;-75
2022/07/04 00:46:33;;;;;;;9.35;3.50;;;;;;;14.00;100.00;101261.78;4972506;28;20100;-75
2022/07/04 00:48:59;;;;;;;12.00;4.75;;;;;;;13.95;100.00;101258.75;4979907;28;20074;-75
2022/07/04 00:51:25;;;;;;;6.63;3.17;;;;;;;13.97;100.00;101263.97;5000102;28;20107;-75
2022/07/04 00:53:53;;;;;;;10.63;3.78;;;;;;;14.01;100.00;101262.63;4999645;28;20030;-74
2022/07/04 00:56:19;;;;;;;12.68;4.82;;;;;;;13.94;100.00;101255.25;4998707;28;20399;-75
2022/07/04 00:58:45;;;;;;;5.95;3.90;;;;;;;13.82;100.00;101239.69;4982984;28;20049;-75
2022/07/04 01:01:10;;;;;;;9.87;4.07;;;;;;;13.87;100.00;101253.41;4998444;28;20490;-75
2022/07/04 01:03:35;;;;;;;7.57;3.20;;;;;;;13.84;100.00;101257.28;4996162;28;20030;-75
2022/07/04 01:06:01;;;;;;;12.33;4.73;;;;;;;13.79;100.00;101253.44;4997054;28;20168;-75
2022/07/04 01:08:26;;;;;;;8.20;3.80;;;;;;;13.74;100.00;101264.66;4999224;28;20075;-75
2022/07/04 01:10:52;;;;;;;5.93;3.43;;;;;;;13.73;100.00;101261.16;5000552;28;20127;-75
2022/07/04 01:13:22;;;;;;;9.70;4.20;;;;;;;13.74;100.00;101259.31;4996491;28;20115;-76
2022/07/04 01:15:48;;;;;;;5.90;3.38;;;;;;;13.70;100.00;101268.72;5001670;28;20033;-76
2022/07/04 01:18:14;;;;;;;;;;;;;;;13.65;100.00;101263.00;4981871;28;20025;-75
2022/07/04 01:20:39;;;;;;;;;;;;;;;13.73;100.00;101271.88;4995939;28;19945;-75
2022/07/04 01:23:05;;;;;;;10.60;4.63;;;;;;;13.67;100.00;101266.38;4979690;28;19961;-74
2022/07/04 01:25:32;;;;;;;14.50;5.07;;;;;;;13.68;100.00;101268.06;4999153;28;20064;-76
2022/07/04 01:27:59;;;;;;;10.90;5.82;;;;;;;13.70;100.00;101264.19;5000197;28;20029;-77
2022/07/04 01:30:25;;;;;;;12.57;6.20;;;;;;;13.72;100.00;101274.75;4996921;28;20038;-75
2022/07/04 01:32:50;;;;;;;10.82;4.70;;;;;;;13.72;100.00;101272.09;4996767;28;20022;-76
2022/07/04 01:35:16;;;;;;;15.77;7.33;;;;;;;13.64;100.00;101272.06;4998559;28;20045;-75
2022/07/04 01:37:41;;;;;;;16.90;7.10;;;;;;;13.65;100.00;101279.09;4998824;28;20101;-75
2022/07/04 01:40:07;;;;;;;10.47;5.83;;;;;;;13.65;100.00;101279.09;4998222;28;20892;-75
2022/07/04 01:42:33;;;;;;;15.27;6.28;;;;;;;13.63;100.00;101281.97;4997694;28;20026;-75
2022/07/04 01:44:58;;;;;;;14.30;6.10;;;;;;;13.56;100.00;101280.97;4997657;28;20360;-75
2022/07/04 01:47:24;;;;;;;16.63;6.87;;;;;;;13.60;100.00;101284.16;5002813;28;20030;-75
2022/07/04 01:49:49;;;;;;;12.30;7.40;;;;;;;13.58;100.00;101283.47;4995093;28;20247;-75
2022/07/04 01:52:15;;;;;;;18.67;10.03;;;;;;;13.56;100.00;101282.84;4997889;28;20057;-75
2022/07/04 01:54:41;;;;;;;15.18;8.65;;;;;;;13.61;100.00;101289.34;4999850;28;20034;-75
2022/07/04 01:57:06;;;;;;;18.52;8.05;;;;;;;13.64;100.00;101282.81;4990185;28;20034;-75
2022/07/04 02:02:16;;;;;;;18.15;8.40;;;;;;;13.59;100.00;101277.94;4996574;28;20045;-76
2022/07/04 02:04:41;;;;;;;14.20;8.00;;;;;;;13.57;100.00;101287.19;4982222;28;20022;-75
2022/07/04 02:07:06;;;;;;;16.83;7.83;;;;;;;13.60;100.00;101285.00;4997596;28;20097;-75
2022/07/04 02:09:32;;;;;;;14.93;7.23;;;;;;;13.61;100.00;101286.69;4994827;28;20546;-75
2022/07/04 02:14:43;;;;;;;10.70;7.35;;;;;;;13.52;100.00;101288.50;4988447;28;20732;-75
2022/07/04 02:17:09;;;;;;;12.65;6.45;;;;;;;13.54;100.00;101283.00;4978772;28;20030;-75
2022/07/04 02:19:35;;;;;;;9.63;6.38;;;;;;;13.53;100.00;101281.28;4999431;28;20038;-75
2022/07/04 02:22:00;;;;;;;13.03;6.37;;;;;;;13.48;100.00;101278.28;4998012;28;20053;-76
2022/07/04 02:24:25;;;;;;;16.10;8.10;;;;;;;13.35;100.00;101273.44;4978596;28;20282;-75
2022/07/04 02:26:51;;;;;;;18.23;7.17;;;;;;;13.40;100.00;101281.81;4994492;28;20072;-75
2022/07/04 02:29:16;;;;;;;13.40;7.93;;;;;;;13.47;100.00;101282.00;4979980;28;20041;-76
2022/07/04 02:31:42;;;;;;;13.43;8.10;;;;;;;13.43;100.00;101278.78;4997596;28;20029;-75
2022/07/04 02:34:08;;;;;;;16.85;8.02;;;;;;;13.39;100.00;101284.66;4997316;28;20030;-76
2022/07/04 02:36:34;;;;;;;19.63;9.25;;;;;;;13.38;100.00;101291.03;4978023;28;20395;-75
2022/07/04 02:38:59;;;;;;;13.55;7.38;;;;;;;13.37;100.00;101292.91;4995469;28;20034;-75
2022/07/04 02:41:25;;;;;;;14.70;7.50;;;;;;;13.40;100.00;101300.59;4980480;28;20034;-75
2022/07/04 02:43:51;;;;;;;16.00;8.57;;;;;;;13.35;100.00;101294.91;4997729;28;20108;-75
2022/07/04 02:46:16;;;;;;;;;;;;;;;13.33;100.00;101304.13;4983362;28;20051;-75
2022/07/04 02:48:42;;;;;;;;;;;;;;;13.30;100.00;101308.81;4981804;28;20422;-75
2022/07/04 02:51:07;;;;;;;11.83;6.87;;;;;;;13.30;100.00;101287.34;4980277;28;19996;-77
2022/07/04 02:53:32;;;;;;;14.30;7.80;;;;;;;13.37;100.00;101308.97;4994208;28;20034;-76
2022/07/04 02:55:58;;;;;;;15.07;7.13;;;;;;;13.27;100.00;101301.09;4995062;28;20088;-76
2022/07/04 02:58:23;;;;;;;9.43;5.97;;;;;;;13.29;100.00;101301.75;4996634;28;20514;-75
2022/07/04 03:00:49;;;;;;;13.40;6.13;;;;;;;13.28;100.00;101299.25;4980909;28;20033;-75
2022/07/04 03:03:14;;;;;;;14.70;7.37;;;;;;;13.28;100.00;101305.44;4995864;28;20036;-75
2022/07/04 03:05:39;;;;;;;11.93;6.77;;;;;;;13.26;100.00;101306.59;4995346;28;20018;-76
2022/07/04 03:08:05;;;;;;;12.57;6.67;;;;;;;13.29;100.00;101307.13;4993997;28;20509;-75
2022/07/04 03:10:30;;;;;;;10.57;5.57;;;;;;;13.25;100.00;101305.75;4980664;28;20037;-78
2022/07/04 03:12:56;;;;;;;9.70;6.00;;;;;;;13.23;100.00;101304.25;4997247;28;20038;-77
2022/07/04 03:15:21;;;;;;;15.37;8.90;;;;;;;13.23;100.00;101312.31;4978365;28;20117;-76
2022/07/04 03:17:46;;;;;;;15.13;6.37;;;;;;;13.21;100.00;101307.09;4977336;28;20065;-76
2022/07/04 03:20:12;;;;;;;16.83;6.67;;;;;;;13.18;100.00;101304.75;4994702;28;20030;-76
2022/07/04 03:22:37;;;;;;;10.67;6.23;;;;;;;13.09;100.00;101303.91;4980357;28;20491;-75
2022/07/04 03:25:05;;;;;;;11.33;6.23;;;;;;;13.14;100.00;101315.97;4997037;28;20080;-76
2022/07/04 03:27:30;;;;;;;11.55;6.93;;;;;;;13.11;100.00;101309.09;4972696;28;20830;-78
2022/07/04 03:29:55;;;;;;;13.07;7.07;;;;;;;13.13;100.00;101314.28;4980068;28;20052;-75
2022/07/04 03:32:21;;;;;;;11.00;5.57;;;;;;;13.13;100.00;101320.47;4993405;28;20037;-75
2022/07/04 03:34:46;;;;;;;8.93;5.27;;;;;;;13.14;100.00;101319.50;4993377;28;20046;-75
2022/07/04 03:37:12;;;;;;;10.65;5.20;;;;;;;13.20;100.00;101313.44;4993869;28;20669;-75
2022/07/04 03:39:37;;;;;;;13.33;4.80;;;;;;;13.18;100.00;101310.13;4997607;28;20479;-76
2022/07/04 03:42:03;;;;;;;8.53;5.27;;;;;;;13.16;100.00;101313.94;4996355;28;20033;-77
2022/07/04 03:44:28;;;;;;;9.75;5.65;;;;;;;13.09;100.00;101311.09;4977045;28;20368;-75
2022/07/04 03:46:54;;;;;;;13.13;6.00;;;;;;;13.07;100.00;101305.91;4993437;28;20042;-75
2022/07/04 03:49:19;;;;;;;13.83;5.60;;;;;;;13.09;100.00;101317.28;4979126;28;20030;-76
2022/07/04 03:51:44;;;;;;;11.73;5.90;;;;;;;13.12;100.00;101313.44;4980691;28;20033;-76
2022/07/04 03:54:10;;;;;;;9.83;5.13;;;;;;;13.15;100.00;101320.31;4996867;28;20033;-76
2022/07/04 03:56:35;;;;;;;10.40;5.33;;;;;;;13.27;100.00;101321.66;4994146;28;20118;-76
2022/07/04 03:59:00;;;;;;;13.07;5.20;;;;;;;13.35;100.00;101329.75;4993438;28;20447;-76
2022/07/04 04:01:26;;;;;;;10.13;5.37;;;;;;;13.42;100.00;101322.72;4995588;28;20030;-76
2022/07/04 04:06:35;;;;;;;8.30;4.25;;;;;;;13.50;100.00;101322.72;4990277;28;20080;-76
2022/07/04 04:09:01;;;;;;;8.37;4.17;;;;;;;13.51;100.00;101327.09;4995365;28;20400;-75
2022/07/04 04:11:26;;;;;;;13.40;4.10;;;;;;;13.58;100.00;101321.91;4979886;28;20050;-76
2022/07/04 04:13:52;;;;;;;10.17;3.97;;;;;;;13.69;100.00;101323.38;4997472;28;20026;-76
2022/07/04 04:16:17;;;;;;;13.17;4.70;;;;;;;13.71;100.00;101327.56;5000608;28;20037;-76
2022/07/04 04:18:43;;;;;;;11.47;4.47;;;;;;;13.78;100.00;101317.00;4993282;28;20491;-75
2022/07/04 04:21:08;;;;;;;3.60;3.10;;;;;;;13.83;100.00;101320.00;4994593;28;20086;-76
2022/07/04 04:23:33;;;;;;;10.03;4.83;;;;;;;13.96;100.00;101316.00;4996617;28;20888;-75
2022/07/04 04:25:59;;;;;;;7.23;3.50;;;;;;;14.04;100.00;101313.28;4996238;28;20579;-76
2022/07/04 04:28:24;;;;;;;6.07;3.73;;;;;;;14.04;100.00;101308.72;4976955;28;20026;-75
2022/07/04 04:30:50;;;;;;;8.53;3.47;;;;;;;14.15;100.00;101315.59;4993889;28;20522;-75
2022/07/04 04:33:16;;;;;;;9.75;4.40;;;;;;;14.21;100.00;101314.06;4979267;28;20027;-76
2022/07/04 04:35:41;;;;;;;9.03;3.00;;;;;;;14.29;100.00;101325.63;4999973;28;20402;-76
2022/07/04 04:38:07;;;;;;;8.85;3.35;;;;;;;14.35;100.00;101329.44;5000615;28;20049;-76
2022/07/04 04:40:32;;;;;;;4.27;3.17;;;;;;;14.46;100.00;101328.25;4997632;28;20037;-75
2022/07/04 04:42:57;;;;;;;6.97;3.40;;;;;;;14.47;100.00;101335.28;5002324;28;20049;-75
2022/07/04 04:45:23;;;;;;;8.13;3.13;;;;;;;14.62;100.00;101319.31;4999903;28;20688;-75
2022/07/04 04:47:48;;;;;;;10.87;3.27;;;;;;;14.69;100.00;101320.28;4999570;28;20022;-76
2022/07/04 04:50:14;;;;;;;9.43;2.87;;;;;;;14.73;100.00;101322.44;4999384;28;20465;-75
2022/07/04 04:52:41;;;;;;;8.35;2.67;;;;;;;14.92;100.00;101336.47;4979686;28;20034;-76
2022/07/04 04:55:07;;;;;;;6.15;2.53;;;;;;;15.03;100.00;101344.16;4996516;28;20034;-76
2022/07/04 04:57:33;;;;;;;7.97;1.98;;;;;;;15.06;100.00;101326.81;4999367;28;20422;-75
2022/07/04 04:59:58;;;;;;;6.38;2.10;;;;;;;15.22;100.00;101331.22;4983093;28;20046;-75
2022/07/04 05:02:23;;;;;;;5.77;2.07;;;;;;;15.19;100.00;101322.53;4996424;28;20094;-75
2022/07/04 05:04:49;;;;;;;7.50;2.10;;;;;;;15.30;100.00;101315.88;4995939;28;20034;-76
2022/07/04 05:07:14;;;;;;;4.10;2.23;;;;;;;15.43;100.00;101330.56;4998247;28;20026;-75
2022/07/04 05:09:40;;;;;;;3.93;1.93;;;;;;;15.60;100.00;101324.88;5000381;28;20032;-76
2022/07/04 05:12:05;;;;;;;6.40;1.80;;;;;;;15.74;100.00;101325.16;4998807;28;20030;-76
2022/07/04 05:14:31;;;;;;;3.73;2.20;;;;;;;15.56;100.00;101315.50;4995346;28;20439;-76
2022/07/04 05:16:56;;;;;;;6.90;2.40;;;;;;;15.81;100.00;101318.00;4979486;28;20285;-76
2022/07/04 05:19:22;;;;;;;5.00;2.23;;;;;;;16.14;100.00;101331.13;4999360;28;20121;-76
2022/07/04 05:21:47;;;;;;;6.80;1.50;;;;;;;16.35;100.00;101319.63;5000609;28;20296;-76
2022/07/04 05:24:13;;;;;;;9.83;3.10;;;;;;;16.33;100.00;101300.09;4996780;28;20101;-76
2022/07/04 05:26:38;;;;;;;5.60;2.20;;;;;;;16.52;100.00;101307.59;5000311;28;20056;-76
2022/07/04 05:29:03;;;;;;;4.20;2.03;;;;;;;16.58;100.00;101296.09;5000141;28;20145;-76
2022/07/04 05:31:29;;;;;;;4.73;1.60;;;;;;;16.83;100.00;101301.16;4987352;28;20088;-76
2022/07/04 05:33:55;;;;;;;4.17;2.00;;;;;;;17.28;100.00;101310.78;4996464;28;20031;-75
2022/07/04 05:36:22;;;;;;;1.75;1.15;;;;;;;17.35;100.00;101274.91;4998417;28;20035;-75
2022/07/04 05:38:48;;;;;;;5.97;1.65;;;;;;;17.72;100.00;101247.59;4998540;28;20034;-75
2022/07/04 05:41:13;;;;;;;4.23;1.30;;;;;;;18.52;100.00;101239.09;4996428;28;20129;-76
2022/07/04 05:43:38;;;;;;;4.47;1.30;;;;;;;18.86;100.00;101154.28;4999789;28;20888;-76
2022/07/04 05:46:04;;;;;;;3.43;1.63;;;;;;;19.20;100.00;101084.78;5002654;28;20503;-75
2022/07/04 05:48:29;;;;;;;5.83;1.60;;;;;;;19.93;100.00;101116.22;4994933;28;20034;-75
2022/07/04 05:50:55;;;;;;;5.27;1.30;;;;;;;20.71;100.00;101037.31;4995584;28;20054;-75
2022/07/04 05:53:20;;;;;;;7.60;1.48;;;;;;;20.57;100.00;100954.41;4998097;28;20034;-76
2022/07/04 05:55:46;;;;;;;4.10;1.40;;;;;;;21.39;100.00;100951.38;5003065;28;20483;-76
2022/07/04 05:58:11;;;;;;;2.50;1.07;;;;;;;20.77;100.00;100908.09;4996252;28;20080;-76
2022/07/04 06:00:39;;;;;;;4.43;1.33;;;;;;;21.05;100.00;100854.06;4997984;28;20372;-76
2022/07/04 06:03:05;;;;;;;2.88;1.08;;;;;;;21.25;100.00;100890.97;4998018;28;20292;-75
2022/07/04 06:05:31;;;;;;;6.63;1.63;;;;;;;21.35;100.00;100895.84;4998016;28;20054;-76
2022/07/04 06:07:57;;;;;;;2.15;1.20;;;;;;;21.27;100.00;100837.28;4997691;28;20057;-76
2022/07/04 06:10:22;;;;;;;4.87;1.47;;;;;;;21.83;100.00;100819.69;5002797;28;20472;-76
2022/07/04 06:12:48;;;;;;;2.60;0.93;;;;;;;22.04;100.00;100776.69;5003387;28;20034;-76
2022/07/04 06:15:13;;;;;;;9.40;1.67;;;;;;;21.60;100.00;100828.66;5002006;28;20030;-76
2022/07/04 06:17:39;;;;;;;7.80;1.83;;;;;;;22.27;100.00;100773.97;4998767;28;20095;-76
2022/07/04 06:20:05;;;;;;;3.30;1.17;;;;;;;23.27;100.00;100861.72;4997106;28;20116;-75
2022/07/04 06:22:41;;;;;;;4.15;1.33;;;;;;;23.08;100.00;100809.31;4997097;28;20283;-76
2022/07/04 06:25:10;;;;;;;4.18;1.13;;;;;;;22.64;100.00;100754.59;4996872;28;20491;-76
2022/07/04 06:27:35;;;;;;;5.97;1.38;;;;;;;22.37;100.00;100704.53;4993236;28;20075;-76
2022/07/04 06:30:01;;;;;;;2.47;1.00;;;;;;;22.95;100.00;100666.16;4998650;28;20037;-76
2022/07/04 06:32:26;;;;;;;7.17;1.10;;;;;;;22.42;100.00;100640.16;4995527;28;20013;-75
2022/07/04 06:37:36;;;;;;;3.58;1.15;;;;;;;23.12;93.71;100589.94;4987662;28;20026;-76
2022/07/04 06:40:01;;;;;;;3.27;1.20;;;;;;;22.45;100.00;100633.41;4994181;28;20033;-76
2022/07/04 06:42:26;;;;;;;3.50;1.17;;;;;;;21.98;100.00;100832.81;4997043;28;20048;-76
2022/07/04 06:44:52;;;;;;;5.72;1.38;;;;;;;22.23;100.00;100801.88;4997720;28;20501;-76
2022/07/04 06:47:18;;;;;;;9.13;1.53;;;;;;;22.22;100.00;100830.97;4995288;28;20079;-76
2022/07/04 06:49:43;;;;;;;3.87;1.10;;;;;;;21.98;100.00;100761.31;4995133;28;20882;-76
2022/07/04 06:52:08;;;;;;;3.77;1.10;;;;;;;22.16;100.00;100912.63;4995750;28;20382;-77
2022/07/04 06:54:34;;;;;;;3.53;1.07;;;;;;;22.83;100.00;100869.53;4998602;28;20034;-77
2022/07/04 06:56:59;;;;;;;3.67;0.90;;;;;;;22.30;100.00;100797.97;4997863;28;20041;-76
2022/07/04 06:59:25;;;;;;;2.67;0.93;;;;;;;22.31;100.00;100821.38;4993658;28;20284;-76
2022/07/04 07:01:50;;;;;;;4.85;1.40;;;;;;;22.65;100.00;100840.59;4991989;28;20036;-76
2022/07/04 07:04:16;;;;;;;5.97;2.00;;;;;;;22.85;100.00;100894.63;4996392;28;20026;-76
2022/07/04 07:06:41;;;;;;;5.50;1.33;;;;;;;22.32;100.00;100771.34;4998296;28;20109;-77
2022/07/04 07:09:07;;;;;;;4.40;1.10;;;;;;;22.50;100.00;100928.16;4996666;28;20265;-76
2022/07/04 07:11:32;;;;;;;7.00;1.60;;;;;;;22.51;100.00;100795.69;4993494;28;20081;-76
2022/07/04 07:13:58;;;;;;;6.83;1.53;;;;;;;21.19;100.00;100919.88;4999393;28;20060;-76
2022/07/04 07:16:25;;;;;;;4.00;1.10;;;;;;;22.13;100.00;101009.09;4994209;28;20039;-77
2022/07/04 07:18:50;;;;;;;6.13;1.30;;;;;;;22.45;100.00;101060.50;4994825;28;20092;-77
2022/07/04 07:21:16;;;;;;;4.45;1.17;;;;;;;22.23;100.00;100794.53;4994957;28;20505;-76
2022/07/04 07:23:42;;;;;;;5.93;1.73;;;;;;;21.87;100.00;100899.72;4980955;28;20558;-76
2022/07/04 07:26:09;;;;;;;4.25;1.73;;;;;;;22.25;100.00;100998.25;4997290;28;20087;-76
2022/07/04 07:28:35;;;;;;;5.40;1.55;;;;;;;23.02;100.00;100959.25;4994743;28;20483;-76
2022/07/04 07:31:01;;;;;;;5.25;1.35;;;;;;;21.83;100.00;100751.75;4993136;28;20045;-76
2022/07/04 07:33:26;;;;;;;6.78;1.63;;;;;;;21.24;100.00;100868.44;4979908;28;20060;-77
2022/07/04 07:35:52;;;;;;;2.47;1.20;;;;;;;21.46;100.00;101045.31;4997005;28;20443;-76
2022/07/04 07:38:17;;;;;;;1.88;0.73;;;;;;;22.49;100.00;101075.28;4994720;28;20398;-77
2022/07/04 07:40:43;;;;;;;5.63;1.10;;;;;;;22.17;100.00;100871.59;4976964;28;20775;-76
2022/07/04 07:43:08;;;;;;;6.10;1.20;;;;;;;21.83;100.00;100876.78;4977822;28;20022;-76
2022/07/04 07:45:34;;;;;;;3.90;1.08;;;;;;;21.78;100.00;100808.72;5001405;28;20055;-77
2022/07/04 07:47:59;;;;;;;10.43;1.52;;;;;;;21.84;100.00;100989.00;5000198;28;20112;-76
2022/07/04 07:50:25;;;;;;;4.20;1.25;;;;;;;22.16;100.00;100915.34;4984115;28;20030;-76
2022/07/04 07:52:50;;;;;;;5.03;1.35;;;;;;;22.34;100.00;100943.28;4996225;28;20084;-76
2022/07/04 07:55:16;;;;;;;8.43;2.40;;;;;;;21.43;100.00;100858.38;4994674;28;20509;-76
2022/07/04 07:57:41;;;;;;;6.53;1.33;;;;;;;21.92;100.00;101043.88;4993951;28;20019;-76
2022/07/04 08:00:07;;;;;;;3.17;1.47;;;;;;;22.32;100.00;100964.44;4998060;28;20499;-76
2022/07/04 08:05:22;;;;;;;5.40;1.27;;;;;;;22.07;100.00;101035.28;4996552;28;20057;-76
2022/07/04 08:07:47;;;;;;;4.73;1.10;;;;;;;21.75;97.02;100754.84;4999484;28;20463;-76
2022/07/04 08:10:13;;;;;;;5.17;1.30;;;;;;;21.78;100.00;100981.81;4999882;28;20057;-76
2022/07/04 08:12:38;;;;;;;5.47;1.23;;;;;;;22.31;100.00;100932.88;4980448;28;20027;-76
2022/07/04 08:15:04;;;;;;;4.77;1.57;;;;;;;21.41;100.00;100835.22;4996790;28;20042;-76
2022/07/04 08:17:30;;;;;;;2.85;1.25;;;;;;;21.75;100.00;100871.69;4989622;28;20539;-76
2022/07/04 08:19:55;;;;;;;5.07;1.30;;;;;;;21.54;100.00;100847.75;4996657;28;20105;-76
2022/07/04 08:22:21;;;;;;;3.90;1.07;;;;;;;22.09;100.00;100931.75;4998904;28;20026;-76
2022/07/04 08:24:47;;;;;;;9.00;1.33;;;;;;;22.20;93.64;100816.75;5001160;28;20061;-76
2022/07/04 08:27:13;;;;;;;;;;;;;;;22.34;98.86;100929.69;5000041;28;20113;-76
2022/07/04 08:29:39;;;;;;;5.20;1.33;;;;;;;22.50;86.87;100731.44;4996329;28;20028;-76
2022/07/04 08:32:07;;;;;;;2.47;1.13;;;;;;;23.18;90.57;100917.66;4996516;28;20417;-76
2022/07/04 08:34:33;;;;;;;2.30;0.90;;;;;;;23.06;87.07;100844.16;5001111;28;20026;-76
2022/07/04 08:36:58;;;;;;;4.68;1.10;;;;;;;22.59;80.17;100623.88;4999766;28;20060;-76
2022/07/04 08:39:23;;;;;;;4.70;1.27;;;;;;;22.57;84.72;100685.03;5000123;28;20113;-76
2022/07/04 08:41:52;;;;;;;4.00;1.43;;;;;;;23.08;83.03;100794.91;4999605;28;20466;-76
2022/07/04 08:44:21;;;;;;;4.68;0.90;;;;;;;23.56;86.19;100918.91;4981369;28;20342;-75
2022/07/04 08:46:51;;;;;;;5.32;1.42;;;;;;;24.11;73.32;100723.75;4996967;28;20028;-76
2022/07/04 08:49:29;;;;;;;5.20;1.80;;;;;;;24.12;70.67;100676.34;4998038;28;20665;-76
2022/07/04 08:51:59;;;;;;;3.42;0.60;;;;;;;23.60;72.86;100644.84;4983251;28;20049;-76
2022/07/04 09:00:01;;;;;;;3.40;0.90;;;;;;;22.67;86.82;100789.47;4996730;28;20030;-76
2022/07/04 09:02:28;;;;;;;5.13;0.88;;;;;;;22.77;84.07;100734.41;4979687;28;20026;-75
2022/07/04 09:04:54;;;;;;;4.32;1.20;;;;;;;23.26;76.98;100690.38;4996034;28;20863;-75
2022/07/04 09:07:19;;;;;;;2.75;0.90;;;;;;;22.76;78.97;100646.50;4997940;28;20026;-75
2022/07/04 09:09:45;;;;;;;4.57;1.05;;;;;;;22.83;76.72;100642.78;5000323;28;20042;-74
2022/07/04 09:12:11;;;;;;;4.47;1.38;;;;;;;23.82;74.63;100783.91;4990168;28;20032;-74
2022/07/04 09:14:38;;;;;;;3.63;0.70;;;;;;;23.58;74.62;100707.75;4996986;28;20034;-74
2022/07/04 09:17:05;;;;;;;2.55;0.90;;;;;;;23.91;74.87;100771.50;4984219;28;20038;-75
2022/07/04 09:19:30;;;;;;;3.38;1.10;;;;;;;24.30;69.25;100695.09;4987004;28;20030;-76
2022/07/04 09:21:56;;;;;;;2.73;0.87;;;;;;;22.88;68.38;100387.88;4996970;28;20472;-76
2022/07/04 09:24:47;;;;;;;2.30;0.98;;;;;;;22.05;72.58;100392.31;4999216;28;20277;-75
2022/07/04 09:27:30;;;;;;;1.95;0.70;;;;;;;22.07;88.73;100762.63;4997469;28;20065;-76
2022/07/04 09:29:55;;;;;;;5.78;0.90;;;;;;;21.33;87.34;100586.53;4996657;28;20044;-75
2022/07/04 09:32:36;;;;;;;4.03;1.10;;;;;;;21.25;100.00;100870.06;4997883;28;20462;-74
2022/07/04 09:35:04;;;;;;;3.45;1.50;;;;;;;21.11;100.00;100998.06;4998979;28;20040;-76
2022/07/04 09:37:41;;;;;;;9.38;2.00;;;;;;;20.52;100.00;101283.19;4995157;28;20112;-76
2022/07/04 09:40:09;;;;;;;5.55;1.52;;;;;;;19.88;100.00;101377.00;4995613;28;20041;-77
2022/07/04 09:42:42;;;;;;;11.50;2.60;;;;;;;18.61;100.00;101369.53;4996566;28;20030;-75
2022/07/04 09:45:10;;;;;;;8.70;2.38;;;;;;;18.16;100.00;101375.28;4986186;28;20044;-76
2022/07/04 09:47:37;;;;;;;8.43;2.53;;;;;;;18.37;100.00;101387.91;5003319;28;20022;-75
2022/07/04 09:50:08;;;;;;;5.82;2.42;;;;;;;19.29;100.00;101423.72;4996860;28;20030;-75
2022/07/04 09:53:03;;;;;;;10.55;2.67;;;;;;;20.15;100.00;101395.94;5026547;22;20045;-88
2022/07/04 09:55:33;;;;;;;5.78;2.42;;;;;;;20.49;100.00;101351.44;5031073;28;20083;-89
2022/07/04 09:58:03;;;;;;;8.07;2.25;;;;;;;21.08;100.00;101352.25;5058279;28;20041;-89
2022/07/04 10:00:33;;;;;;;5.43;1.70;;;;;;;21.35;100.00;101184.53;5052807;22;20048;-73
2022/07/04 10:03:28;;;;;;;4.72;2.22;;;;;;;21.92;100.00;101277.66;5021433;28;20041;-74
2022/07/04 10:06:04;;;;;;;5.90;2.10;;;;;;;21.81;100.00;101150.66;5002786;28;20041;-74
2022/07/04 10:08:29;;;;;;;;;;;;;;;21.49;100.00;100957.09;4999612;28;20115;-73
2022/07/04 10:10:59;;;;;;;4.53;1.50;;;;;;;22.04;100.00;101018.63;4989636;28;19956;-73
2022/07/04 10:13:25;;;;;;;4.28;1.40;;;;;;;21.73;100.00;101016.97;5005830;28;20121;-73
2022/07/04 10:15:51;;;;;;;5.45;1.48;;;;;;;21.29;100.00;101004.34;5007284;28;20148;-73
2022/07/04 10:18:21;;;;;;;4.72;1.00;;;;;;;21.25;100.00;100929.00;5006757;28;20034;-73
2022/07/04 10:20:51;;;;;;;2.67;1.17;;;;;;;20.66;100.00;101032.53;5006896;28;20479;-72
2022/07/04 10:23:18;;;;;;;4.13;1.10;;;;;;;21.34;100.00;101062.56;5006799;28;20036;-72
2022/07/04 10:25:51;;;;;;;4.80;1.33;;;;;;;22.51;100.00;101138.47;5005601;28;20103;-73
2022/07/04 10:28:18;;;;;;;3.55;1.05;;;;;;;23.22;100.00;101071.31;5006679;28;20041;-73
2022/07/04 10:30:47;;;;;;;4.18;0.90;;;;;;;22.86;100.00;100745.75;5005637;28;20025;-73
2022/07/04 10:33:13;;;;;;;1.48;1.02;;;;;;;22.77;100.00;100701.75;5005389;28;20034;-73
2022/07/04 10:36:15;;;;;;;3.00;0.90;;;;;;;24.00;100.00;100819.09;5007182;28;20018;-74
2022/07/04 10:38:55;;;;;;;4.93;1.00;;;;;;;24.47;100.00;100841.56;5000122;28;20037;-74
2022/07/04 10:41:23;;;;;;;5.63;1.15;;;;;;;24.98;100.00;100957.75;5005183;28;20091;-73
2022/07/04 10:43:48;;;;;;;2.72;0.80;;;;;;;24.68;80.39;100539.66;5005330;28;20014;-74
2022/07/04 10:46:16;;;;;;;4.60;0.98;;;;;;;24.30;86.11;100593.34;5006715;28;20042;-74
2022/07/04 10:48:52;;;;;;;3.65;1.10;;;;;;;23.05;92.75;100570.22;4988639;28;20022;-73
2022/07/04 10:51:41;;;;;;;2.55;0.75;;;;;;;22.71;100.00;100812.41;5004700;28;20125;-74
2022/07/04 10:54:32;;;;;;;4.97;1.67;;;;;;;22.25;100.00;100628.44;5005992;28;20383;-73
2022/07/04 10:57:11;;;;;;;2.83;1.20;;;;;;;;;;5006292;28;20129;-73
2022/07/04 10:59:38;;;;;;;5.68;1.00;;;;;;;22.61;100.00;100705.25;4997813;28;20033;-73
2022/07/04 11:02:03;;;;;;;0.90;0.70;;;;;;;23.48;97.77;100793.94;5004843;28;20888;-74
2022/07/04 11:04:52;;;;;;;2.40;1.37;;;;;;;22.76;88.31;100531.41;5005081;28;20045;-73
2022/07/04 11:07:23;;;;;;;1.75;0.68;;;;;;;23.05;97.81;100760.00;5002721;28;20033;-73
2022/07/04 11:10:10;;;;;;;1.30;0.60;;;;;;;21.79;84.08;100323.16;5005417;28;20136;-73
2022/07/04 11:13:06;;;;;;;2.15;1.10;;;;;;;22.25;87.64;100541.44;5005804;28;20022;-72
2022/07/04 11:15:31;;;;;;;1.08;0.88;;;;;;;22.11;87.67;100524.56;4998413;28;20116;-72
2022/07/04 11:18:12;;;;;;;1.83;1.10;;;;;;;22.52;86.85;100588.69;5004473;28;20101;-72
2022/07/04 11:20:43;;;;;;;2.75;0.80;;;;;;;22.85;81.89;100569.88;5000106;28;20120;-73
2022/07/04 11:23:12;;;;;;;3.60;1.38;;;;;;;22.49;82.12;100493.13;5004146;28;20038;-73
2022/07/04 11:25:40;;;;;;;1.48;0.90;;;;;;;22.72;76.13;100432.28;5004933;28;20083;-73
2022/07/04 11:28:19;;;;;;;1.20;0.63;;;;;;;23.81;75.02;100618.69;5006087;28;20038;-73
2022/07/04 11:30:55;;;;;;;3.15;0.77;;;;;;;22.19;73.53;100320.22;5006030;28;20076;-74
2022/07/04 11:33:24;;;;;;;1.30;0.85;;;;;;;21.66;79.43;100351.47;5003477;28;20042;-73
2022/07/04 11:36:20;;;;;;;1.73;0.80;;;;;;;23.01;79.19;100626.25;5005153;28;20025;-72
2022/07/04 11:39:06;;;;;;;1.83;0.90;;;;;;;23.41;77.77;100657.09;5001106;28;20045;-73